Time;durP1;ratioP1;P1;durP2;ratioP2;P2;SDS_P1;SDS_P2;PMS_P1;PMS_P2;Temp;Humidity;BMP_temperature;BMP_pressure;BME280_temperature;BME280_humidity;BME280_pressure;Samples;Min_cycle;Max_cycle;Signal;HPM_P1;HPM_P2
2022/11/04 00:01:08;;;;;;;;;;;9.30;99.90;;;;;;5054915;28;20348;-73
2022/11/04 00:03:34;;;;;;;;;;;9.30;99.90;;;;;;5037239;28;20415;-72
2022/11/04 00:06:00;;;;;;;;;;;9.30;99.90;;;;;;5037259;28;19920;-72
2022/11/04 00:08:25;;;;;;;;;;;9.30;99.90;;;;;;5055050;28;19921;-72
2022/11/04 00:13:38;;;;;;;;;;;9.30;99.90;;;;;;5055051;28;19928;-72
2022/11/04 00:18:48;;;;;;;;;;;9.30;99.90;;;;;;5040053;28;20007;-73
2022/11/04 00:29:26;;;;;;;;;;;9.30;99.90;;;;;;5054724;28;20269;-73
2022/11/04 00:34:35;;;;;;;;;;;9.30;99.90;;;;;;5054434;28;19920;-72
2022/11/04 00:37:01;;;;;;;;;;;9.30;99.90;;;;;;5054425;28;19912;-73
2022/11/04 00:39:28;;;;;;;;;;;9.20;99.90;;;;;;5054475;28;19912;-73
2022/11/04 00:41:53;;;;;;;;;;;9.20;99.90;;;;;;5054323;28;19952;-72
2022/11/04 00:44:19;;;;;;;;;;;9.20;99.90;;;;;;5054120;28;20002;-73
2022/11/04 00:46:44;;;;;;;;;;;9.10;99.90;;;;;;5036399;28;19913;-73
2022/11/04 00:49:11;;;;;;;;;;;9.20;99.90;;;;;;5054260;28;19913;-73
2022/11/04 00:51:37;;;;;;;;;;;9.10;99.90;;;;;;5054183;28;19917;-73
2022/11/04 00:54:03;;;;;;;;;;;9.20;99.90;;;;;;5036285;28;19967;-72
2022/11/04 00:56:28;;;;;;;;;;;9.30;99.90;;;;;;5054170;28;19917;-74
2022/11/04 00:58:54;;;;;;;;;;;9.40;99.90;;;;;;5053993;28;20385;-73
2022/11/04 01:01:19;;;;;;;;;;;9.30;99.90;;;;;;5053811;28;19920;-72
2022/11/04 01:03:46;;;;;;;;;;;9.30;99.90;;;;;;5036062;28;19919;-72
2022/11/04 01:06:11;;;;;;;;;;;9.30;99.90;;;;;;5053988;28;19913;-72
2022/11/04 01:08:37;;;;;;;;;;;9.30;99.90;;;;;;5053942;28;19910;-72
2022/11/04 01:11:03;;;;;;;;;;;9.30;99.90;;;;;;5053851;28;20013;-73
2022/11/04 01:13:29;;;;;;;;;;;9.30;99.90;;;;;;5053558;28;19932;-71
2022/11/04 01:15:58;;;;;;;;;;;9.30;99.90;;;;;;5053596;28;19909;-71
2022/11/04 01:18:24;;;;;;;;;;;9.40;99.90;;;;;;5053698;28;19968;-72
2022/11/04 01:20:50;;;;;;;;;;;9.40;99.90;;;;;;5053585;28;20099;-73
2022/11/04 01:23:15;;;;;;;;;;;9.50;99.90;;;;;;5053869;28;19952;-72
2022/11/04 01:25:41;;;;;;;;;;;9.60;99.90;;;;;;5053810;28;19913;-72
2022/11/04 01:28:06;;;;;;;;;;;9.60;99.90;;;;;;5053684;28;19967;-73
2022/11/04 01:30:32;;;;;;;;;;;9.70;99.90;;;;;;5053336;28;19959;-72
2022/11/04 01:32:58;;;;;;;;;;;9.80;99.90;;;;;;5053613;28;20289;-72
2022/11/04 01:35:23;;;;;;;;;;;9.90;99.90;;;;;;5053810;28;20011;-72
2022/11/04 01:37:49;;;;;;;;;;;9.90;99.90;;;;;;5053409;28;19913;-72
2022/11/04 01:40:14;;;;;;;;;;;9.90;99.90;;;;;;5053414;28;20026;-72
2022/11/04 01:42:40;;;;;;;;;;;9.90;99.90;;;;;;5053388;28;19967;-72
2022/11/04 01:45:11;;;;;;;;;;;9.90;99.90;;;;;;5052982;28;19920;-72
2022/11/04 01:47:41;;;;;;;;;;;9.90;99.90;;;;;;5053764;28;20047;-72
2022/11/04 01:50:12;;;;;;;;;;;9.90;99.90;;;;;;5053424;28;19915;-72
2022/11/04 01:52:43;;;;;;;;;;;9.90;99.90;;;;;;5035626;28;19912;-72
2022/11/04 01:55:12;;;;;;;;;;;9.90;99.90;;;;;;5053381;28;19909;-71
2022/11/04 01:57:40;;;;;;;;;;;10.00;99.90;;;;;;5053634;28;20355;-72
2022/11/04 02:00:06;;;;;;;;;;;10.00;99.90;;;;;;5035426;28;20288;-71
2022/11/04 02:02:33;;;;;;;;;;;10.00;99.90;;;;;;5053127;28;19916;-72
2022/11/04 02:04:59;;;;;;;;;;;10.10;99.90;;;;;;5052001;28;19909;-72
2022/11/04 02:07:25;;;;;;;;;;;10.10;99.90;;;;;;5053261;28;19920;-72
2022/11/04 02:09:50;;;;;;;;;;;10.20;99.90;;;;;;5035385;28;19963;-72
2022/11/04 02:15:00;;;;;;;;;;;10.20;99.90;;;;;;5053486;28;19920;-72
2022/11/04 02:17:32;;;;;;;;;;;10.20;99.90;;;;;;5053015;28;20343;-71
2022/11/04 02:20:17;;;;;;;;;;;10.20;99.90;;;;;;5053073;28;20014;-71
2022/11/04 02:22:45;;;;;;;;;;;10.10;99.90;;;;;;5052863;28;19988;-70
2022/11/04 02:25:18;;;;;;;;;;;10.10;99.90;;;;;;5051452;28;20383;-70
2022/11/04 02:27:44;;;;;;;;;;;10.10;99.90;;;;;;5052831;28;20424;-70
2022/11/04 02:30:14;;;;;;;;;;;10.10;99.90;;;;;;5052878;28;19935;-69
2022/11/04 02:32:55;;;;;;;;;;;10.10;99.90;;;;;;5052723;28;19939;-71
2022/11/04 02:35:26;;;;;;;;;;;10.10;99.90;;;;;;5052571;28;19909;-71
2022/11/04 02:37:55;;;;;;;;;;;10.00;99.90;;;;;;5033774;28;20002;-71
2022/11/04 02:40:23;;;;;;;;;;;10.00;99.90;;;;;;5052367;28;19909;-71
2022/11/04 02:42:56;;;;;;;;;;;10.00;99.90;;;;;;5052312;28;19952;-70
2022/11/04 02:45:25;;;;;;;;;;;9.90;99.90;;;;;;5052526;28;20011;-70
2022/11/04 02:47:54;;;;;;;;;;;9.80;99.90;;;;;;5053173;28;20400;-71
2022/11/04 02:50:24;;;;;;;;;;;9.70;99.90;;;;;;5052886;28;19912;-70
2022/11/04 02:52:52;;;;;;;;;;;9.60;99.90;;;;;;5052871;28;20011;-69
2022/11/04 02:55:18;;;;;;;;;;;9.60;99.90;;;;;;5053410;28;19909;-69
2022/11/04 02:57:45;;;;;;;;;;;9.40;99.90;;;;;;5055278;28;19933;-71
2022/11/04 03:00:12;;;;;;;;;;;9.40;99.90;;;;;;5056463;28;19916;-72
2022/11/04 03:02:40;;;;;;;;;;;9.30;99.90;;;;;;5038493;28;19911;-71
2022/11/04 03:05:08;;;;;;;;;;;9.20;99.90;;;;;;5038424;28;19915;-71
2022/11/04 03:07:35;;;;;;;;;;;9.20;99.90;;;;;;5056878;28;19909;-71
2022/11/04 03:10:03;;;;;;;;;;;9.30;99.90;;;;;;5056846;28;20293;-71
2022/11/04 03:12:31;;;;;;;;;;;9.30;99.90;;;;;;5056174;28;20007;-70
2022/11/04 03:15:03;;;;;;;;;;;9.20;99.90;;;;;;5056487;28;19909;-70
2022/11/04 03:17:33;;;;;;;;;;;9.10;99.90;;;;;;5056472;28;19951;-71
2022/11/04 03:19:59;;;;;;;;;;;9.00;99.90;;;;;;5056139;28;20060;-71
2022/11/04 03:22:25;;;;;;;;;;;9.00;99.90;;;;;;5056011;28;19912;-72
2022/11/04 03:24:51;;;;;;;;;;;9.00;99.90;;;;;;5056302;28;20019;-71
2022/11/04 03:27:30;;;;;;;;;;;8.90;99.90;;;;;;5056229;28;19917;-72
2022/11/04 03:30:16;;;;;;;;;;;8.90;99.90;;;;;;5055940;28;19909;-71
2022/11/04 03:32:42;;;;;;;;;;;8.90;99.90;;;;;;5055324;28;19998;-72
2022/11/04 03:35:08;;;;;;;;;;;8.90;99.90;;;;;;5056052;28;20307;-71
2022/11/04 03:37:34;;;;;;;;;;;8.90;99.90;;;;;;5055789;28;19952;-71
2022/11/04 03:40:00;;;;;;;;;;;8.90;99.90;;;;;;5055737;28;19955;-72
2022/11/04 03:42:26;;;;;;;;;;;8.80;99.90;;;;;;5055856;28;20380;-71
2022/11/04 03:44:52;;;;;;;;;;;8.80;99.90;;;;;;5055645;28;19913;-72
2022/11/04 03:47:19;;;;;;;;;;;8.80;99.90;;;;;;5055860;28;19909;-72
2022/11/04 03:49:46;;;;;;;;;;;8.80;99.90;;;;;;5037713;28;19909;-71
2022/11/04 03:52:13;;;;;;;;;;;8.70;99.90;;;;;;5055667;28;19917;-71
2022/11/04 03:54:38;;;;;;;;;;;8.80;99.90;;;;;;5055941;28;19920;-71
2022/11/04 03:57:09;;;;;;;;;;;8.70;99.90;;;;;;5055517;28;20297;-71
2022/11/04 03:59:35;;;;;;;;;;;8.70;99.90;;;;;;5055759;28;20288;-71
2022/11/04 04:02:07;;;;;;;;;;;8.70;99.90;;;;;;5055314;28;19909;-71
2022/11/04 04:04:36;;;;;;;;;;;8.70;99.90;;;;;;5055363;28;20280;-72
2022/11/04 04:07:09;;;;;;;;;;;8.60;99.90;;;;;;5055205;28;19909;-71
2022/11/04 04:09:39;;;;;;;;;;;8.50;99.90;;;;;;5054879;28;20260;-72
2022/11/04 04:12:11;;;;;;;;;;;8.50;99.90;;;;;;5054929;28;19924;-72
2022/11/04 04:14:47;;;;;;;;;;;8.40;99.90;;;;;;5055096;28;20011;-71
2022/11/04 04:17:17;;;;;;;;;;;8.40;99.90;;;;;;5055055;28;19967;-71
2022/11/04 04:19:55;;;;;;;;;;;8.30;99.90;;;;;;5055059;28;19915;-71
2022/11/04 04:22:22;;;;;;;;;;;8.30;99.90;;;;;;5054879;28;20009;-71
2022/11/04 04:27:34;;;;;;;;;;;8.30;99.90;;;;;;5054924;28;19916;-71
2022/11/04 04:30:03;;;;;;;;;;;8.30;99.90;;;;;;5055028;28;19909;-71
2022/11/04 04:32:31;;;;;;;;;;;8.30;99.90;;;;;;5054811;28;19917;-71
2022/11/04 04:37:42;;;;;;;;;;;8.20;99.90;;;;;;5055288;28;19916;-72
2022/11/04 04:45:39;;;;;;;;;;;8.20;99.90;;;;;;5054867;28;19936;-72
2022/11/04 04:48:06;;;;;;;;;;;8.30;99.90;;;;;;5054530;28;20367;-72
2022/11/04 04:50:36;;;;;;;;;;;8.20;99.90;;;;;;5054629;28;20258;-72
2022/11/04 04:53:05;;;;;;;;;;;8.30;99.90;;;;;;5054300;28;19939;-72
2022/11/04 04:55:31;;;;;;;;;;;8.30;99.90;;;;;;5054247;28;19916;-72
2022/11/04 04:57:57;;;;;;;;;;;8.30;99.90;;;;;;5054259;28;19912;-72
2022/11/04 05:00:23;;;;;;;;;;;8.30;99.90;;;;;;5054218;28;19909;-72
2022/11/04 05:02:48;;;;;;;;;;;8.20;99.90;;;;;;5054073;28;20000;-71
2022/11/04 05:05:14;;;;;;;;;;;8.30;99.90;;;;;;5054685;28;19917;-70
2022/11/04 05:07:43;;;;;;;;;;;8.30;99.90;;;;;;5036166;28;19913;-72
2022/11/04 05:10:09;;;;;;;;;;;8.30;99.90;;;;;;5036493;28;19909;-70
2022/11/04 05:15:21;;;;;;;;;;;8.30;99.90;;;;;;5022828;28;19909;-70
2022/11/04 05:17:47;;;;;;;;;;;8.20;99.90;;;;;;5054210;28;19917;-71
2022/11/04 05:20:12;;;;;;;;;;;8.20;99.90;;;;;;5053716;28;19908;-71
2022/11/04 05:22:38;;;;;;;;;;;8.20;99.90;;;;;;5053779;28;20373;-71
2022/11/04 05:25:04;;;;;;;;;;;8.10;99.90;;;;;;5053837;28;20296;-71
2022/11/04 05:27:30;;;;;;;;;;;8.10;99.90;;;;;;5054225;28;20258;-72
2022/11/04 05:29:55;;;;;;;;;;;8.00;99.90;;;;;;5035921;28;19909;-72
2022/11/04 05:32:21;;;;;;;;;;;8.00;99.90;;;;;;5053759;28;20316;-72
2022/11/04 05:34:47;;;;;;;;;;;8.00;99.90;;;;;;5053605;28;20357;-72
2022/11/04 05:37:12;;;;;;;;;;;7.90;99.90;;;;;;5053939;28;20268;-72
2022/11/04 05:39:38;;;;;;;;;;;7.80;99.90;;;;;;5053898;28;19915;-72
2022/11/04 05:42:03;;;;;;;;;;;7.80;99.90;;;;;;5035811;28;19917;-71
2022/11/04 05:44:29;;;;;;;;;;;7.80;99.90;;;;;;5053839;28;19958;-70
2022/11/04 05:46:54;;;;;;;;;;;7.80;99.90;;;;;;5053552;28;19917;-71
2022/11/04 05:49:20;;;;;;;;;;;7.80;99.90;;;;;;5053806;28;19920;-70
2022/11/04 05:51:45;;;;;;;;;;;7.70;99.90;;;;;;5053652;28;19980;-70
2022/11/04 05:54:11;;;;;;;;;;;7.70;99.90;;;;;;5053361;28;19913;-70
2022/11/04 05:56:36;;;;;;;;;;;7.70;99.90;;;;;;5053768;28;19938;-70
2022/11/04 05:59:02;;;;;;;;;;;7.70;99.90;;;;;;5053424;28;19920;-70
2022/11/04 06:01:32;;;;;;;;;;;7.70;99.90;;;;;;5053646;28;19913;-70
2022/11/04 06:03:58;;;;;;;;;;;7.70;99.90;;;;;;5053267;28;19999;-70
2022/11/04 06:06:25;;;;;;;;;;;7.70;99.90;;;;;;5053296;28;20080;-71
2022/11/04 06:08:51;;;;;;;;;;;7.60;99.90;;;;;;5053320;28;19929;-70
2022/11/04 06:11:16;;;;;;;;;;;7.60;99.90;;;;;;5053256;28;19915;-69
2022/11/04 06:13:42;;;;;;;;;;;7.60;99.90;;;;;;5053028;28;19921;-70
2022/11/04 06:16:07;;;;;;;;;;;7.70;99.90;;;;;;5053548;28;20051;-71
2022/11/04 06:18:33;;;;;;;;;;;7.70;99.90;;;;;;5053235;28;19912;-70
2022/11/04 06:21:14;;;;;;;;;;;7.70;99.90;;;;;;5053533;28;19915;-70
2022/11/04 06:23:40;;;;;;;;;;;7.60;99.90;;;;;;5053092;28;19948;-70
2022/11/04 06:26:05;;;;;;;;;;;7.60;99.90;;;;;;5053118;28;19952;-70
2022/11/04 06:28:31;;;;;;;;;;;7.50;99.90;;;;;;5053089;28;19952;-70
2022/11/04 06:30:58;;;;;;;;;;;7.50;99.90;;;;;;5053379;28;19913;-70
2022/11/04 06:33:23;;;;;;;;;;;7.50;99.90;;;;;;5038703;28;19912;-70
2022/11/04 06:35:49;;;;;;;;;;;7.50;99.90;;;;;;5057004;28;19920;-69
2022/11/04 06:38:14;;;;;;;;;;;7.60;99.90;;;;;;5056899;28;19913;-68
2022/11/04 06:40:40;;;;;;;;;;;7.50;99.90;;;;;;5039138;28;19996;-69
2022/11/04 06:43:05;;;;;;;;;;;7.40;99.90;;;;;;5056726;28;19913;-69
2022/11/04 06:45:31;;;;;;;;;;;7.40;99.90;;;;;;5056775;28;20000;-69
2022/11/04 06:47:57;;;;;;;;;;;7.40;99.90;;;;;;5056730;28;19916;-69
2022/11/04 06:50:22;;;;;;;;;;;7.40;99.90;;;;;;5038823;28;19913;-69
2022/11/04 06:52:48;;;;;;;;;;;7.40;99.90;;;;;;5038639;28;19940;-68
2022/11/04 06:55:13;;;;;;;;;;;7.40;99.90;;;;;;5038739;28;19913;-68
2022/11/04 06:57:39;;;;;;;;;;;7.40;99.90;;;;;;5056515;28;20293;-69
2022/11/04 07:00:05;;;;;;;;;;;7.50;99.90;;;;;;5056506;28;19913;-69
2022/11/04 07:02:30;;;;;;;;;;;7.50;99.90;;;;;;5056701;28;19913;-69
2022/11/04 07:04:56;;;;;;;;;;;7.60;99.90;;;;;;5056722;28;19999;-70
2022/11/04 07:07:21;;;;;;;;;;;7.60;99.90;;;;;;5056958;28;19952;-69
2022/11/04 07:09:47;;;;;;;;;;;7.50;99.90;;;;;;5056401;28;19913;-70
2022/11/04 07:12:12;;;;;;;;;;;7.50;99.90;;;;;;5056087;28;19933;-70
2022/11/04 07:14:38;;;;;;;;;;;7.40;99.90;;;;;;5056586;28;19935;-70
2022/11/04 07:17:03;;;;;;;;;;;7.40;99.90;;;;;;5056170;28;19928;-70
2022/11/04 07:19:29;;;;;;;;;;;7.40;99.90;;;;;;5056188;28;20369;-70
2022/11/04 07:21:55;;;;;;;;;;;7.40;99.90;;;;;;5056071;28;20369;-70
2022/11/04 07:24:20;;;;;;;;;;;7.40;99.90;;;;;;5056353;28;19923;-70
2022/11/04 07:26:46;;;;;;;;;;;7.40;99.90;;;;;;5056030;28;20335;-70
2022/11/04 07:29:11;;;;;;;;;;;7.40;99.90;;;;;;5056029;28;20013;-70
2022/11/04 07:31:37;;;;;;;;;;;7.30;99.90;;;;;;5055853;28;20365;-70
2022/11/04 07:34:03;;;;;;;;;;;7.30;99.90;;;;;;5055920;28;19913;-70
2022/11/04 07:36:28;;;;;;;;;;;7.30;99.90;;;;;;5056406;28;20276;-70
2022/11/04 07:38:54;;;;;;;;;;;7.20;99.90;;;;;;5055837;28;19958;-70
2022/11/04 07:41:19;;;;;;;;;;;7.10;99.90;;;;;;5056082;28;19913;-70
2022/11/04 07:43:49;;;;;;;;;;;7.10;99.90;;;;;;5054440;28;19913;-70
2022/11/04 07:46:15;;;;;;;;;;;7.00;99.90;;;;;;5056242;28;20250;-70
2022/11/04 07:48:41;;;;;;;;;;;7.00;99.90;;;;;;5055680;28;19995;-70
2022/11/04 07:51:07;;;;;;;;;;;6.90;99.90;;;;;;5055864;28;19908;-70
2022/11/04 07:53:33;;;;;;;;;;;6.90;99.90;;;;;;5055552;28;19952;-71
2022/11/04 07:56:02;;;;;;;;;;;6.90;99.90;;;;;;5055479;28;20400;-70
2022/11/04 07:58:27;;;;;;;;;;;6.80;99.90;;;;;;5055388;28;19954;-70
2022/11/04 08:01:00;;;;;;;;;;;6.70;99.90;;;;;;5055351;28;19916;-71
2022/11/04 08:03:25;;;;;;;;;;;6.60;99.90;;;;;;5055250;28;19908;-71
2022/11/04 08:05:55;;;;;;;;;;;6.50;99.90;;;;;;5055598;28;19920;-71
2022/11/04 08:08:20;;;;;;;;;;;6.50;99.90;;;;;;5055257;28;19958;-70
2022/11/04 08:10:50;;;;;;;;;;;6.40;99.90;;;;;;5055168;28;19913;-70
2022/11/04 08:13:16;;;;;;;;;;;6.30;99.90;;;;;;5054979;28;19990;-70
2022/11/04 08:15:41;;;;;;;;;;;6.20;99.90;;;;;;5037306;28;19963;-70
2022/11/04 08:18:07;;;;;;;;;;;6.20;99.90;;;;;;5037439;28;19913;-70
2022/11/04 08:20:32;;;;;;;;;;;6.20;99.90;;;;;;5055321;28;19928;-70
2022/11/04 08:22:58;;;;;;;;;;;6.10;99.90;;;;;;5055363;28;20008;-70
2022/11/04 08:25:23;;;;;;;;;;;6.10;99.90;;;;;;5054971;28;19913;-70
2022/11/04 08:27:49;;;;;;;;;;;6.20;99.90;;;;;;5055192;28;19963;-70
2022/11/04 08:30:14;;;;;;;;;;;6.20;99.90;;;;;;5037067;28;19923;-70
2022/11/04 08:32:43;;;;;;;;;;;6.30;99.90;;;;;;5054610;28;19967;-70
2022/11/04 08:35:09;;;;;;;;;;;6.30;99.90;;;;;;5037655;28;19912;-70
2022/11/04 08:37:35;;;;;;;;;;;6.30;99.90;;;;;;5037239;28;19924;-70
2022/11/04 08:40:00;;;;;;;;;;;6.30;99.90;;;;;;5054892;28;19944;-69
2022/11/04 08:42:26;;;;;;;;;;;6.30;99.90;;;;;;5036598;28;20427;-70
2022/11/04 08:44:51;;;;;;;;;;;6.30;99.90;;;;;;5054813;28;19913;-69
2022/11/04 08:47:17;;;;;;;;;;;6.20;99.90;;;;;;5054478;28;19920;-70
2022/11/04 08:49:43;;;;;;;;;;;6.20;99.90;;;;;;5036483;28;19908;-69
2022/11/04 08:52:08;;;;;;;;;;;6.20;99.90;;;;;;5036477;28;20365;-70
2022/11/04 08:54:34;;;;;;;;;;;6.20;99.90;;;;;;5054231;28;19913;-69
2022/11/04 08:57:00;;;;;;;;;;;6.10;99.90;;;;;;5054563;28;19913;-69
2022/11/04 08:59:26;;;;;;;;;;;6.00;99.90;;;;;;5054529;28;19912;-69
2022/11/04 09:01:51;;;;;;;;;;;6.00;99.90;;;;;;5054217;28;20377;-69
2022/11/04 09:04:18;;;;;;;;;;;5.90;99.90;;;;;;5054116;28;19912;-70
2022/11/04 09:06:45;;;;;;;;;;;5.90;99.90;;;;;;5054421;28;19913;-69
2022/11/04 09:09:12;;;;;;;;;;;5.90;99.90;;;;;;5036213;28;19940;-69
2022/11/04 09:11:39;;;;;;;;;;;5.90;99.90;;;;;;5036110;28;19909;-69
2022/11/04 09:14:05;;;;;;;;;;;5.80;99.90;;;;;;5053988;28;19921;-70
2022/11/04 09:16:32;;;;;;;;;;;5.70;99.90;;;;;;5054231;28;19955;-70
2022/11/04 09:18:58;;;;;;;;;;;5.60;99.90;;;;;;5054185;28;19913;-70
2022/11/04 09:21:24;;;;;;;;;;;5.50;99.90;;;;;;5036011;28;19913;-69
2022/11/04 09:23:50;;;;;;;;;;;5.40;99.90;;;;;;5053795;28;19913;-69
2022/11/04 09:26:16;;;;;;;;;;;5.50;99.90;;;;;;5054000;28;20280;-70
2022/11/04 09:28:42;;;;;;;;;;;5.40;99.90;;;;;;5035968;28;20376;-70
2022/11/04 09:31:09;;;;;;;;;;;5.40;99.90;;;;;;5053691;28;19909;-70
2022/11/04 09:33:34;;;;;;;;;;;5.40;99.90;;;;;;5053682;28;20384;-70
2022/11/04 09:36:00;;;;;;;;;;;5.30;99.90;;;;;;5053975;28;19919;-70
2022/11/04 09:38:26;;;;;;;;;;;5.30;99.90;;;;;;5053666;28;19917;-70
2022/11/04 09:40:51;;;;;;;;;;;5.40;99.90;;;;;;5053922;28;19958;-70
2022/11/04 09:43:23;;;;;;;;;;;5.50;99.90;;;;;;5053748;28;20357;-70
2022/11/04 09:45:48;;;;;;;;;;;5.50;99.90;;;;;;5035740;28;19909;-70
2022/11/04 09:48:23;;;;;;;;;;;5.40;99.90;;;;;;5053528;28;19924;-70
2022/11/04 09:50:51;;;;;;;;;;;5.40;99.90;;;;;;5053804;28;19916;-70
2022/11/04 09:53:20;;;;;;;;;;;5.40;99.90;;;;;;5053347;28;19913;-70
2022/11/04 09:55:56;;;;;;;;;;;5.30;99.90;;;;;;5053856;28;20337;-69
2022/11/04 09:58:21;;;;;;;;;;;5.20;99.90;;;;;;5035832;28;19988;-70
2022/11/04 10:00:53;;;;;;;;;;;5.10;99.90;;;;;;5053382;28;19952;-70
2022/11/04 10:03:19;;;;;;;;;;;5.00;99.90;;;;;;5053572;28;20353;-71
2022/11/04 10:05:50;;;;;;;;;;;4.90;99.90;;;;;;5053649;28;19913;-71
2022/11/04 10:08:28;;;;;;;;;;;4.90;99.90;;;;;;5057014;28;19909;-71
2022/11/04 10:10:59;;;;;;;;;;;4.80;99.90;;;;;;5057483;28;19916;-71
2022/11/04 10:13:30;;;;;;;;;;;4.80;99.90;;;;;;5057195;28;19925;-71
2022/11/04 10:16:22;;;;;;;;;;;4.70;99.90;;;;;;5057381;28;19957;-71
2022/11/04 10:18:59;;;;;;;;;;;4.70;99.90;;;;;;5054360;28;19916;-71
2022/11/04 10:21:44;;;;;;;;;;;4.60;99.90;;;;;;5057543;28;19913;-71
2022/11/04 10:24:22;;;;;;;;;;;4.60;99.90;;;;;;5057179;28;19952;-71
2022/11/04 10:26:55;;;;;;;;;;;4.50;99.90;;;;;;5057197;28;19927;-71
2022/11/04 10:29:40;;;;;;;;;;;4.40;99.90;;;;;;5057421;28;19909;-71
2022/11/04 10:32:12;;;;;;;;;;;4.40;99.90;;;;;;5056362;28;20011;-71
2022/11/04 10:34:41;;;;;;;;;;;4.30;99.90;;;;;;5057850;28;20373;-71
2022/11/04 10:37:11;;;;;;;;;;;4.30;99.90;;;;;;5057012;28;19909;-71
2022/11/04 10:39:41;;;;;;;;;;;4.30;99.90;;;;;;5056871;28;19916;-71
2022/11/04 10:42:08;;;;;;;;;;;4.40;99.90;;;;;;5038869;28;19934;-71
2022/11/04 10:44:35;;;;;;;;;;;4.30;99.90;;;;;;5056792;28;19915;-71
2022/11/04 10:47:13;;;;;;;;;;;4.40;99.90;;;;;;5057045;28;19912;-70
2022/11/04 10:49:47;;;;;;;;;;;4.40;99.90;;;;;;5038858;28;20031;-70
2022/11/04 10:52:13;;;;;;;;;;;4.50;99.90;;;;;;5056592;28;19955;-70
2022/11/04 10:54:43;;;;;;;;;;;4.40;99.90;;;;;;5038959;28;20023;-69
2022/11/04 10:57:10;;;;;;;;;;;4.30;99.90;;;;;;5056870;28;19909;-69
2022/11/04 10:59:49;;;;;;;;;;;4.20;99.90;;;;;;5057058;28;19921;-69
2022/11/04 11:02:15;;;;;;;;;;;4.10;99.90;;;;;;5056461;28;19908;-69
2022/11/04 11:04:43;;;;;;;;;;;4.00;99.90;;;;;;5056448;28;20011;-69
2022/11/04 11:07:09;;;;;;;;;;;3.90;99.90;;;;;;5056450;28;19913;-69
2022/11/04 11:09:36;;;;;;;;;;;3.90;99.90;;;;;;5038474;28;19913;-69
2022/11/04 11:12:03;;;;;;;;;;;3.80;99.90;;;;;;5056106;28;19917;-69
2022/11/04 11:14:29;;;;;;;;;;;3.90;99.90;;;;;;5056556;28;19909;-69
2022/11/04 11:16:55;;;;;;;;;;;3.80;99.90;;;;;;5056436;28;19920;-69
2022/11/04 11:19:24;;;;;;;;;;;3.80;99.90;;;;;;5056221;28;19947;-71
2022/11/04 11:21:51;;;;;;;;;;;3.70;99.90;;;;;;5056183;28;20379;-69
2022/11/04 11:24:21;;;;;;;;;;;3.70;99.90;;;;;;5056358;28;20283;-69
2022/11/04 11:26:49;;;;;;;;;;;3.60;99.90;;;;;;5056616;28;19909;-69
2022/11/04 11:29:20;;;;;;;;;;;3.50;99.90;;;;;;5056270;28;19909;-70
2022/11/04 11:31:46;;;;;;;;;;;3.50;99.90;;;;;;5056157;28;19908;-69
2022/11/04 11:34:14;;;;;;;;;;;3.60;99.90;;;;;;5055849;28;19909;-69
2022/11/04 11:36:43;;;;;;;;;;;3.70;99.90;;;;;;5056185;28;19908;-69
2022/11/04 11:39:12;;;;;;;;;;;3.80;99.90;;;;;;5056123;28;20281;-69
2022/11/04 11:41:53;;;;;;;;;;;3.70;99.90;;;;;;5055800;28;19931;-69
2022/11/04 11:44:24;;;;;;;;;;;3.60;99.90;;;;;;5055735;28;19909;-69
2022/11/04 11:46:54;;;;;;;;;;;3.50;99.90;;;;;;5055763;28;20284;-70
2022/11/04 11:49:29;;;;;;;;;;;3.40;99.90;;;;;;5055674;28;19909;-69
2022/11/04 11:51:55;;;;;;;;;;;3.20;99.90;;;;;;5055406;28;19921;-69
2022/11/04 11:54:33;;;;;;;;;;;3.10;99.90;;;;;;5055541;28;19913;-69
2022/11/04 11:57:02;;;;;;;;;;;3.10;99.90;;;;;;5055433;28;20034;-69
2022/11/04 11:59:28;;;;;;;;;;;3.10;99.90;;;;;;5055426;28;20373;-69
2022/11/04 12:02:02;;;;;;;;;;;3.20;99.90;;;;;;5055299;28;19963;-69
2022/11/04 12:04:28;;;;;;;;;;;3.20;99.90;;;;;;5055310;28;19908;-69
2022/11/04 12:07:06;;;;;;;;;;;3.20;99.90;;;;;;5055554;28;20276;-68
2022/11/04 12:09:36;;;;;;;;;;;3.30;99.90;;;;;;5055564;28;19909;-68
2022/11/04 12:12:05;;;;;;;;;;;3.40;99.90;;;;;;5055404;28;19917;-68
2022/11/04 12:14:46;;;;;;;;;;;3.30;99.90;;;;;;5055199;28;19905;-68
2022/11/04 12:17:29;;;;;;;;;;;3.20;99.90;;;;;;5055115;28;19916;-68
2022/11/04 12:20:04;;;;;;;;;;;3.20;99.90;;;;;;5055664;28;19927;-68
2022/11/04 12:22:36;;;;;;;;;;;3.20;99.90;;;;;;5054944;28;19923;-68
2022/11/04 12:25:10;;;;;;;;;;;3.20;99.90;;;;;;5055560;28;19935;-68
2022/11/04 12:27:41;;;;;;;;;;;3.30;99.90;;;;;;5054903;28;20063;-68
2022/11/04 12:30:11;;;;;;;;;;;3.30;99.90;;;;;;5036260;28;20034;-68
2022/11/04 12:32:42;;;;;;;;;;;3.40;99.90;;;;;;5054782;28;19923;-68
2022/11/04 12:35:14;;;;;;;;;;;3.30;99.90;;;;;;5055299;28;19908;-68
2022/11/04 12:37:52;;;;;;;;;;;3.40;99.90;;;;;;5054975;28;19909;-68
2022/11/04 12:40:20;;;;;;;;;;;3.40;99.90;;;;;;5054667;28;19909;-68
2022/11/04 12:43:01;;;;;;;;;;;3.40;99.90;;;;;;5054852;28;19913;-68
2022/11/04 12:45:45;;;;;;;;;;;3.40;99.90;;;;;;5036647;28;20365;-68
2022/11/04 12:48:19;;;;;;;;;;;3.40;99.90;;;;;;5054514;28;19958;-68
2022/11/04 12:51:00;;;;;;;;;;;3.40;99.90;;;;;;5054749;28;19920;-68
2022/11/04 12:53:35;;;;;;;;;;;3.40;99.90;;;;;;5054390;28;20335;-68
2022/11/04 12:56:08;;;;;;;;;;;3.40;99.90;;;;;;5054295;28;19909;-68
2022/11/04 12:58:40;;;;;;;;;;;3.30;99.90;;;;;;5036355;28;19913;-68
2022/11/04 13:01:07;;;;;;;;;;;3.30;99.90;;;;;;5054258;28;19912;-68
2022/11/04 13:03:39;;;;;;;;;;;3.30;99.90;;;;;;5054342;28;20265;-68
2022/11/04 13:06:09;;;;;;;;;;;3.20;99.90;;;;;;5054186;28;19917;-68
2022/11/04 13:08:38;;;;;;;;;;;3.10;99.90;;;;;;5054427;28;20339;-68
2022/11/04 13:11:21;;;;;;;;;;;3.10;99.90;;;;;;5054658;28;19908;-68
2022/11/04 13:14:20;;;;;;;;;;;3.20;99.90;;;;;;5053807;28;19921;-68
2022/11/04 13:16:48;;;;;;;;;;;3.30;99.90;;;;;;5020959;28;19913;-68
2022/11/04 13:19:27;;;;;;;;;;;3.30;99.90;;;;;;5036119;28;20003;-68
2022/11/04 13:21:54;;;;;;;;;;;3.30;99.90;;;;;;5054246;28;19909;-68
2022/11/04 13:24:22;;;;;;;;;;;3.30;99.90;;;;;;5053890;28;19909;-68
2022/11/04 13:26:50;;;;;;;;;;;3.30;99.90;;;;;;5054065;28;19909;-68
2022/11/04 13:29:20;;;;;;;;;;;3.30;99.90;;;;;;5053739;28;19913;-68
2022/11/04 13:31:46;;;;;;;;;;;3.30;99.90;;;;;;5053926;28;19912;-68
2022/11/04 13:34:23;;;;;;;;;;;3.30;99.90;;;;;;5053961;28;19986;-68
2022/11/04 13:36:52;;;;;;;;;;;3.30;99.90;;;;;;5053753;28;19909;-68
2022/11/04 13:39:25;;;;;;;;;;;3.30;99.90;;;;;;5035678;28;19909;-68
2022/11/04 13:42:09;;;;;;;;;;;3.30;99.90;;;;;;5053516;28;19909;-68
2022/11/04 13:44:41;;;;;;;;;;;3.30;99.90;;;;;;5053839;28;19920;-68
2022/11/04 13:47:13;;;;;;;;;;;3.30;99.90;;;;;;5053782;28;19908;-68
2022/11/04 13:49:39;;;;;;;;;;;3.40;99.90;;;;;;5054029;28;19923;-68
2022/11/04 13:52:06;;;;;;;;;;;3.40;99.90;;;;;;5053351;28;20011;-68
2022/11/04 13:54:35;;;;;;;;;;;3.40;99.90;;;;;;5053467;28;20062;-68
2022/11/04 13:57:13;;;;;;;;;;;3.40;99.90;;;;;;5053420;28;19909;-68
2022/11/04 13:59:39;;;;;;;;;;;3.40;99.90;;;;;;5053368;28;19947;-68
2022/11/04 14:02:10;;;;;;;;;;;3.40;99.90;;;;;;5053308;28;19921;-68
2022/11/04 14:04:40;;;;;;;;;;;3.40;99.90;;;;;;5053866;28;20388;-68
2022/11/04 14:07:07;;;;;;;;;;;3.50;99.90;;;;;;5035495;28;19920;-68
2022/11/04 14:09:41;;;;;;;;;;;3.50;99.90;;;;;;5053522;28;19974;-68
2022/11/04 14:12:07;;;;;;;;;;;3.50;99.90;;;;;;5053048;28;19916;-68
2022/11/04 14:14:32;;;;;;;;;;;3.50;99.90;;;;;;5053549;28;20280;-68
2022/11/04 14:16:58;;;;;;;;;;;3.40;99.90;;;;;;5053240;28;19920;-68
2022/11/04 14:19:42;;;;;;;;;;;3.40;99.90;;;;;;5053175;28;19912;-68
2022/11/04 14:22:13;;;;;;;;;;;3.30;99.90;;;;;;5053147;28;19916;-68
2022/11/04 14:24:39;;;;;;;;;;;3.40;99.90;;;;;;5035258;28;19913;-67
2022/11/04 14:27:05;;;;;;;;;;;3.40;99.90;;;;;;5053140;28;19924;-67
2022/11/04 14:29:30;;;;;;;;;;;3.40;99.90;;;;;;5053341;28;19966;-68
2022/11/04 14:31:58;;;;;;;;;;;3.40;99.90;;;;;;5052968;28;19917;-68
2022/11/04 14:34:32;;;;;;;;;;;3.40;99.90;;;;;;5052899;28;19962;-68
2022/11/04 14:36:59;;;;;;;;;;;3.50;99.90;;;;;;5053508;28;19909;-68
2022/11/04 14:39:30;;;;;;;;;;;3.40;99.90;;;;;;5053258;28;20349;-67
2022/11/04 14:41:55;;;;;;;;;;;3.40;99.90;;;;;;5053240;28;19912;-68
2022/11/04 14:44:33;;;;;;;;;;;3.40;99.90;;;;;;5052984;28;20050;-67
2022/11/04 14:47:01;;;;;;;;;;;3.40;99.90;;;;;;5052955;28;19908;-67
2022/11/04 14:49:34;;;;;;;;;;;3.40;99.90;;;;;;5035101;28;19915;-67
2022/11/04 14:52:00;;;;;;;;;;;3.40;99.90;;;;;;5053374;28;19909;-68
2022/11/04 14:54:29;;;;;;;;;;;3.40;99.90;;;;;;5056460;28;20297;-68
2022/11/04 14:57:06;;;;;;;;;;;3.50;99.90;;;;;;5056945;28;20427;-68
2022/11/04 14:59:31;;;;;;;;;;;3.50;99.90;;;;;;5057135;28;19909;-68
2022/11/04 15:01:57;;;;;;;;;;;3.50;99.90;;;;;;5056494;28;20356;-68
2022/11/04 15:04:25;;;;;;;;;;;3.50;99.90;;;;;;5038843;28;19912;-68
2022/11/04 15:06:58;;;;;;;;;;;3.50;99.90;;;;;;5056439;28;19909;-68
2022/11/04 15:09:26;;;;;;;;;;;3.60;99.90;;;;;;5056201;28;19909;-68